Time;durP1;ratioP1;P1;durP2;ratioP2;P2;SDS_P1;SDS_P2;PMS_P1;PMS_P2;Temp;Humidity;BMP_temperature;BMP_pressure;BME280_temperature;BME280_humidity;BME280_pressure;Samples;Min_cycle;Max_cycle;Signal;HPM_P1;HPM_P2
2020/12/26 00:00:37;;;;;;;10.57;5.33;;;;;;;-2.64;88.51;99830.63;5018169;28;20046;-78
2020/12/26 00:03:03;;;;;;;8.50;4.97;;;;;;;-2.70;88.34;99836.28;5022880;28;20046;-78
2020/12/26 00:05:30;;;;;;;11.70;5.63;;;;;;;-2.73;88.10;99841.78;5036797;28;20183;-78
2020/12/26 00:07:56;;;;;;;7.77;5.33;;;;;;;-2.64;88.55;99835.09;5029430;28;20108;-78
2020/12/26 00:10:22;;;;;;;8.27;4.67;;;;;;;-2.63;88.34;99832.34;5034743;28;20050;-78
2020/12/26 00:12:49;;;;;;;6.80;4.73;;;;;;;-2.86;88.68;99805.19;5036827;28;20533;-78
2020/12/26 00:15:16;;;;;;;7.57;4.93;;;;;;;-2.67;88.35;99810.34;5037642;28;20052;-78
2020/12/26 00:17:42;;;;;;;12.90;6.27;;;;;;;-2.42;88.28;99834.75;5038655;28;20050;-78
2020/12/26 00:20:09;;;;;;;8.60;5.30;;;;;;;-2.51;nan;99825.47;5038674;28;20103;-78
2020/12/26 00:22:36;;;;;;;9.60;5.33;;;;;;;-2.66;88.66;99816.53;5020249;28;20056;-78
2020/12/26 00:25:03;;;;;;;10.03;5.87;;;;;;;-2.56;nan;99820.41;5017681;28;20089;-78
2020/12/26 00:27:30;;;;;;;9.37;5.30;;;;;;;-2.71;88.90;99805.28;5038139;28;20390;-78
2020/12/26 00:29:57;;;;;;;8.40;4.77;;;;;;;-2.69;88.93;99830.88;5030901;28;20517;-78
2020/12/26 00:32:24;;;;;;;7.90;4.67;;;;;;;-2.74;89.09;99829.41;5019541;28;20418;-78
2020/12/26 00:34:50;;;;;;;12.97;5.70;;;;;;;-2.81;88.76;99820.06;5019094;28;20632;-78
2020/12/26 00:37:17;;;;;;;7.57;5.07;;;;;;;-2.97;89.10;99807.56;5027821;28;20057;-78
2020/12/26 00:39:43;;;;;;;9.00;5.40;;;;;;;-2.83;89.49;99824.56;5022218;28;20073;-78
2020/12/26 00:42:10;;;;;;;12.20;5.33;;;;;;;-2.96;88.52;99806.63;5024344;28;20049;-78
2020/12/26 00:44:36;;;;;;;9.17;4.87;;;;;;;-2.87;88.50;99834.53;5032500;28;20056;-78
2020/12/26 00:47:04;;;;;;;10.80;5.60;;;;;;;-2.89;88.98;99825.75;5024716;28;20045;-78
2020/12/26 00:49:30;;;;;;;10.13;5.23;;;;;;;-2.79;88.70;99844.78;5030927;28;20056;-78
2020/12/26 00:51:56;;;;;;;9.00;5.17;;;;;;;-2.93;87.74;99841.03;5030502;28;20053;-78
2020/12/26 00:54:22;;;;;;;8.60;5.80;;;;;;;-2.86;88.04;99846.88;5027874;28;20042;-78
2020/12/26 00:56:49;;;;;;;10.37;5.70;;;;;;;-3.12;87.74;99819.88;5018208;28;20057;-78
2020/12/26 00:59:44;;;;;;;13.33;6.10;;;;;;;-2.96;87.75;99846.53;5020918;28;20486;-78
2020/12/26 01:02:23;;;;;;;12.83;6.50;;;;;;;-3.03;87.92;99855.78;5035779;28;20053;-78
2020/12/26 01:04:50;;;;;;;13.95;6.75;;;;;;;-3.11;88.88;99842.03;5035724;28;20046;-78
2020/12/26 01:07:16;;;;;;;14.20;6.90;;;;;;;-2.93;89.33;99856.16;5034207;28;20067;-78
2020/12/26 01:09:42;;;;;;;14.80;7.97;;;;;;;-2.99;89.37;99865.31;5033995;28;20100;-78
2020/12/26 01:12:09;;;;;;;12.37;6.80;;;;;;;-2.94;90.13;99870.41;5035558;28;20053;-78
2020/12/26 01:14:35;;;;;;;10.33;6.27;;;;;;;-2.86;89.50;99871.72;5034147;28;20046;-78
2020/12/26 01:17:03;;;;;;;15.87;7.70;;;;;;;-2.84;89.49;99861.00;5034328;28;20072;-79
2020/12/26 01:19:30;;;;;;;14.10;7.43;;;;;;;-2.98;90.34;99850.22;5033999;28;20049;-78
2020/12/26 01:21:56;;;;;;;15.33;8.00;;;;;;;-2.87;90.06;99840.72;5034914;28;20042;-78
2020/12/26 01:24:25;;;;;;;15.47;7.60;;;;;;;-2.82;90.54;99850.25;5034925;28;20057;-78
2020/12/26 01:26:51;;;;;;;15.07;8.10;;;;;;;-2.65;89.44;99859.97;5015415;28;20046;-78
2020/12/26 01:29:19;;;;;;;15.17;8.90;;;;;;;-2.47;88.92;99874.94;5015219;28;20061;-78
2020/12/26 01:31:50;;;;;;;10.50;6.33;;;;;;;-2.90;89.28;99859.50;5025809;28;20046;-78
2020/12/26 01:34:21;;;;;;;11.70;6.87;;;;;;;-2.71;88.93;99872.69;5029357;28;20071;-78
2020/12/26 01:36:53;;;;;;;13.77;7.77;;;;;;;-2.89;89.39;99861.25;5030622;28;20100;-78
2020/12/26 01:39:20;;;;;;;13.50;7.60;;;;;;;-2.84;89.45;99876.94;5028373;28;20049;-78
2020/12/26 01:41:49;;;;;;;14.60;7.50;;;;;;;-2.77;89.26;99885.44;5033142;28;20128;-78
2020/12/26 01:44:15;;;;;;;14.20;7.57;;;;;;;-2.92;89.02;99873.81;5033276;28;20045;-78
2020/12/26 01:46:43;;;;;;;12.30;7.10;;;;;;;-2.96;89.26;99882.94;5034586;28;20386;-78
2020/12/26 01:49:09;;;;;;;14.20;7.93;;;;;;;-3.00;89.52;99892.84;5033673;28;20418;-78
2020/12/26 01:51:35;;;;;;;14.50;7.07;;;;;;;-2.88;89.85;99912.66;5033934;28;20049;-78
2020/12/26 01:54:03;;;;;;;13.43;7.63;;;;;;;-2.90;90.24;99895.91;5033096;28;20513;-78
2020/12/26 01:56:29;;;;;;;15.50;7.07;;;;;;;-2.71;89.77;99906.41;5025324;28;20103;-78
2020/12/26 01:58:56;;;;;;;12.43;6.77;;;;;;;-2.60;89.72;99912.03;5033560;28;20433;-78
2020/12/26 02:01:32;;;;;;;15.23;7.57;;;;;;;-2.61;89.46;99915.63;5033811;28;20045;-78
2020/12/26 02:03:59;;;;;;;10.67;6.43;;;;;;;-2.85;89.75;99886.72;5032239;28;20116;-78
2020/12/26 02:06:26;;;;;;;12.83;7.57;;;;;;;-2.69;89.91;99893.91;5033557;28;20049;-78
2020/12/26 02:08:52;;;;;;;16.67;7.47;;;;;;;-2.77;89.98;99893.44;5032910;28;20060;-78
2020/12/26 02:11:21;;;;;;;12.10;7.70;;;;;;;-2.60;90.03;99913.84;5027545;28;20056;-79
2020/12/26 02:13:47;;;;;;;10.70;6.70;;;;;;;-2.60;90.07;99908.53;5035770;28;20769;-78
2020/12/26 02:16:17;;;;;;;11.17;6.97;;;;;;;-2.70;90.36;99895.69;5032282;28;20064;-78
2020/12/26 02:18:43;;;;;;;12.48;7.13;;;;;;;-2.77;90.10;99873.03;5031817;28;20041;-79
2020/12/26 02:21:10;;;;;;;13.30;7.00;;;;;;;-2.78;90.12;99873.97;5025095;28;20057;-78
2020/12/26 02:23:42;;;;;;;13.07;7.30;;;;;;;-2.78;89.67;99868.63;5030611;28;20120;-78
2020/12/26 02:26:09;;;;;;;13.80;7.37;;;;;;;-2.61;88.96;99894.34;5030633;28;20076;-78
2020/12/26 02:28:41;;;;;;;14.90;8.07;;;;;;;-2.76;89.13;99900.50;5024393;28;20071;-78
2020/12/26 02:31:08;;;;;;;11.97;7.40;;;;;;;-2.65;89.09;99908.75;5029765;28;20045;-78
2020/12/26 02:33:35;;;;;;;14.13;7.60;;;;;;;-2.67;88.68;99903.50;5033231;28;20044;-78
2020/12/26 02:36:01;;;;;;;13.10;7.73;;;;;;;-2.77;88.33;99877.47;5032023;28;20136;-78
2020/12/26 02:38:28;;;;;;;13.57;8.23;;;;;;;-2.77;88.97;99899.63;5029838;28;20049;-78
2020/12/26 02:40:55;;;;;;;12.20;6.90;;;;;;;-2.95;89.07;99879.31;5030552;28;20065;-78
2020/12/26 02:43:23;;;;;;;16.93;8.47;;;;;;;-2.88;89.41;99908.16;5032808;28;20046;-78
2020/12/26 02:46:06;;;;;;;11.90;7.10;;;;;;;-2.82;89.52;99920.31;5032627;28;20512;-78
2020/12/26 02:48:32;;;;;;;11.90;6.00;;;;;;;-2.94;90.59;99905.84;5014099;28;20057;-78
2020/12/26 02:50:58;;;;;;;13.83;7.80;;;;;;;-2.78;90.70;99923.69;5033424;28;20088;-78
2020/12/26 02:53:25;;;;;;;15.70;7.97;;;;;;;-2.79;90.55;99912.16;5030041;28;20057;-78
2020/12/26 02:55:52;;;;;;;14.37;7.97;;;;;;;-2.64;90.98;99926.44;5031814;28;20050;-78
2020/12/26 02:58:19;;;;;;;14.40;8.80;;;;;;;-2.62;90.90;99924.59;5028408;28;20042;-78
2020/12/26 03:00:45;;;;;;;13.73;7.43;;;;;;;-2.71;90.77;99914.41;5026010;28;20053;-78
2020/12/26 03:03:12;;;;;;;16.77;7.63;;;;;;;-2.58;90.41;99915.47;5029893;28;20056;-78
2020/12/26 03:05:38;;;;;;;15.10;8.20;;;;;;;-2.60;91.35;99906.72;5032753;28;20049;-78
2020/12/26 03:08:04;;;;;;;14.10;7.67;;;;;;;-2.69;91.31;99880.59;5031254;28;20049;-78
2020/12/26 03:10:43;;;;;;;12.90;7.53;;;;;;;-2.36;91.10;99922.31;5032293;28;20045;-79
2020/12/26 03:13:10;;;;;;;13.70;7.95;;;;;;;-2.26;89.68;99906.66;5031198;28;20046;-78
2020/12/26 03:15:37;;;;;;;11.27;7.33;;;;;;;-2.38;89.45;99889.56;5033398;28;20046;-78
2020/12/26 03:18:07;;;;;;;15.57;7.60;;;;;;;-2.21;89.16;99916.13;5033466;28;20053;-78
2020/12/26 03:20:33;;;;;;;13.80;8.02;;;;;;;-2.43;89.98;99907.59;5028849;28;20049;-78
2020/12/26 03:22:59;;;;;;;12.90;8.50;;;;;;;-2.50;90.38;99901.72;5033938;28;20065;-78
2020/12/26 03:25:26;;;;;;;14.40;9.10;;;;;;;-2.41;90.71;99908.38;5039110;28;20055;-79
2020/12/26 03:27:52;;;;;;;14.13;7.90;;;;;;;-2.48;90.96;99891.88;5053367;28;20049;-78
2020/12/26 03:30:18;;;;;;;16.33;7.93;;;;;;;-2.37;90.36;99917.91;5033347;28;20053;-78
2020/12/26 03:32:45;;;;;;;16.77;8.33;;;;;;;-2.40;90.80;99897.63;5033091;28;20045;-78
2020/12/26 03:35:12;;;;;;;20.83;9.47;;;;;;;-2.27;90.65;99915.59;5032613;28;20228;-79
2020/12/26 03:37:38;;;;;;;15.67;8.80;;;;;;;-2.22;90.07;99933.03;5032916;28;20045;-79
2020/12/26 03:40:06;;;;;;;13.17;8.77;;;;;;;-2.22;90.13;99933.03;5032815;28;20049;-78
2020/12/26 03:42:32;;;;;;;14.07;8.50;;;;;;;-2.32;89.75;99924.72;5033351;28;20091;-79
2020/12/26 03:44:58;;;;;;;15.43;8.10;;;;;;;-2.33;90.00;99916.81;5032379;28;20413;-78
2020/12/26 03:47:24;;;;;;;16.03;8.87;;;;;;;-2.23;89.92;99935.78;5032944;28;20049;-79
2020/12/26 03:49:51;;;;;;;16.37;7.83;;;;;;;-2.24;90.06;99942.94;5033052;28;20049;-78
2020/12/26 03:52:18;;;;;;;14.23;8.47;;;;;;;-2.16;89.71;99951.34;5030134;28;20052;-78
2020/12/26 03:54:44;;;;;;;14.63;8.43;;;;;;;-2.08;89.61;99952.72;5032597;28;20064;-79
2020/12/26 03:57:12;;;;;;;20.73;8.93;;;;;;;-2.17;89.80;99956.75;5029709;28;20054;-80
2020/12/26 03:59:39;;;;;;;16.20;9.63;;;;;;;-2.38;89.84;99919.72;5031686;28;20042;-79
2020/12/26 04:02:05;;;;;;;17.73;8.77;;;;;;;-2.36;90.38;99930.28;5031636;28;20049;-80
2020/12/26 04:04:31;;;;;;;20.73;8.10;;;;;;;-2.26;90.67;99954.59;5031956;28;20053;-80
2020/12/26 04:06:58;;;;;;;19.23;8.97;;;;;;;-2.18;90.39;99957.72;5031021;28;20069;-80
2020/12/26 04:09:24;;;;;;;14.60;8.73;;;;;;;-2.22;90.31;99943.69;5032264;28;20053;-80
2020/12/26 04:11:51;;;;;;;18.63;8.80;;;;;;;-2.32;90.45;99927.38;5027836;28;20410;-80
2020/12/26 04:14:17;;;;;;;24.50;8.80;;;;;;;-2.06;89.95;99953.50;5033188;28;20547;-79
2020/12/26 04:16:43;;;;;;;18.97;8.93;;;;;;;-2.19;89.75;99924.88;5035949;28;20489;-79
2020/12/26 04:19:09;;;;;;;14.10;9.13;;;;;;;-2.22;89.98;99945.50;5035351;28;20399;-79
2020/12/26 04:21:36;;;;;;;15.47;8.40;;;;;;;-2.24;90.24;99942.94;5035358;28;20493;-80
2020/12/26 04:24:03;;;;;;;14.07;8.63;;;;;;;-2.17;90.00;99944.31;5035339;28;20046;-79
2020/12/26 04:26:29;;;;;;;14.63;8.57;;;;;;;-2.10;89.83;99955.47;5035130;28;20099;-79
2020/12/26 04:28:56;;;;;;;17.50;9.17;;;;;;;-2.13;90.67;99934.34;5036267;28;20049;-79
2020/12/26 04:31:23;;;;;;;15.80;9.13;;;;;;;-2.31;90.56;99917.56;5034946;28;20049;-80
2020/12/26 04:33:49;;;;;;;16.17;8.47;;;;;;;-2.14;90.73;99944.16;5034896;28;20079;-80
2020/12/26 04:36:16;;;;;;;16.53;8.57;;;;;;;-2.09;90.57;99951.00;5035125;28;20046;-79
2020/12/26 04:38:42;;;;;;;16.90;10.20;;;;;;;-2.07;90.54;99949.13;5035378;28;20418;-79
2020/12/26 04:41:09;;;;;;;14.33;8.53;;;;;;;-2.19;91.10;99932.88;5034973;28;20417;-80
2020/12/26 04:43:35;;;;;;;15.70;9.07;;;;;;;-2.06;90.95;99954.38;5035046;28;20046;-80
2020/12/26 04:46:12;;;;;;;14.93;9.00;;;;;;;-1.96;90.08;99958.25;5033652;28;20053;-80
2020/12/26 04:48:46;;;;;;;16.60;9.63;;;;;;;-2.17;90.54;99936.31;5035720;28;20052;-80
2020/12/26 04:51:17;;;;;;;21.30;9.10;;;;;;;-2.01;90.93;99956.78;5035394;28;20095;-79
2020/12/26 04:53:45;;;;;;;18.33;9.47;;;;;;;-1.97;90.43;99953.00;5035904;28;20049;-80
2020/12/26 04:56:12;;;;;;;17.97;9.47;;;;;;;-2.12;90.52;99925.41;5027739;28;20085;-80
2020/12/26 04:58:40;;;;;;;18.00;9.70;;;;;;;-1.84;90.08;99961.16;5035561;28;20128;-80
2020/12/26 05:01:09;;;;;;;22.80;9.00;;;;;;;-1.93;90.08;99962.53;5035217;28;20077;-79
2020/12/26 05:03:36;;;;;;;20.03;9.03;;;;;;;-1.94;90.27;99966.16;5021234;28;20099;-79
2020/12/26 05:06:04;;;;;;;18.33;8.67;;;;;;;-1.99;90.85;99965.53;5034147;28;20049;-80
2020/12/26 05:08:31;;;;;;;17.07;9.03;;;;;;;-2.03;90.74;99963.97;5032263;28;20069;-79
2020/12/26 05:10:58;;;;;;;16.63;8.70;;;;;;;-2.10;90.69;99936.84;5023196;28;20050;-79
2020/12/26 05:13:26;;;;;;;16.47;9.77;;;;;;;-2.07;91.28;99942.00;5030725;28;20042;-79
2020/12/26 05:15:53;;;;;;;18.80;9.53;;;;;;;-1.96;91.18;99966.25;5031031;28;20092;-79
2020/12/26 05:18:20;;;;;;;19.73;9.20;;;;;;;-1.87;90.05;99956.00;5016861;28;20041;-80
2020/12/26 05:20:47;;;;;;;16.03;9.33;;;;;;;-1.83;90.26;99952.22;5032307;28;20061;-80
2020/12/26 05:23:14;;;;;;;18.87;9.10;;;;;;;-1.92;90.26;99942.09;5033368;28;20048;-80
2020/12/26 05:25:42;;;;;;;20.27;9.63;;;;;;;-1.80;90.53;99958.22;5034269;28;20061;-80
2020/12/26 05:28:14;;;;;;;17.17;9.30;;;;;;;-1.85;90.49;99956.75;5015752;28;20057;-79
2020/12/26 05:30:42;;;;;;;17.23;9.63;;;;;;;-1.80;90.31;99960.91;5028432;28;20503;-79
2020/12/26 05:33:10;;;;;;;22.90;10.03;;;;;;;-1.81;89.86;99955.66;5018146;28;20702;-79
2020/12/26 05:35:38;;;;;;;15.63;8.97;;;;;;;-1.77;90.09;99961.69;5032911;28;20041;-80
2020/12/26 05:38:18;;;;;;;19.87;9.50;;;;;;;-1.85;90.17;99954.97;5034241;28;20050;-79
2020/12/26 05:40:49;;;;;;;19.00;8.50;;;;;;;-1.97;89.98;99929.03;5018341;28;20041;-79
2020/12/26 05:43:20;;;;;;;19.00;9.27;;;;;;;-1.89;89.50;99929.44;5034748;28;20042;-79
2020/12/26 05:45:48;;;;;;;14.90;8.87;;;;;;;-2.02;89.24;99917.75;5034129;28;20053;-79
2020/12/26 05:48:20;;;;;;;13.23;8.10;;;;;;;-1.93;89.18;99937.69;5034451;28;20053;-80
2020/12/26 05:50:47;;;;;;;25.70;8.60;;;;;;;-2.04;89.04;99931.16;5034762;28;20057;-79
2020/12/26 05:53:15;;;;;;;15.47;8.53;;;;;;;-2.03;89.11;99948.88;5032579;28;20041;-79
2020/12/26 05:55:42;;;;;;;19.03;8.13;;;;;;;-2.24;89.16;99923.41;5016212;28;20050;-79
2020/12/26 05:58:09;;;;;;;16.00;8.43;;;;;;;-2.32;89.44;99937.16;5015081;28;20096;-79
2020/12/26 06:00:38;;;;;;;15.27;8.63;;;;;;;-2.49;89.30;99904.31;5034596;28;20053;-80
2020/12/26 06:03:25;;;;;;;15.60;7.97;;;;;;;-2.28;89.65;99954.69;5052975;28;20055;-80
2020/12/26 06:05:53;;;;;;;21.50;9.10;;;;;;;-2.45;88.93;99929.00;5034144;28;20485;-79
2020/12/26 06:08:20;;;;;;;21.63;8.77;;;;;;;-2.43;89.30;99923.56;5034090;28;20042;-79
2020/12/26 06:10:52;;;;;;;15.17;8.37;;;;;;;-2.53;89.45;99925.88;5034332;28;20093;-79
2020/12/26 06:13:20;;;;;;;17.73;8.73;;;;;;;-2.52;89.36;99938.25;5034546;28;20056;-81
2020/12/26 06:15:50;;;;;;;14.67;8.67;;;;;;;-2.44;89.07;99930.69;5033869;28;20064;-79
2020/12/26 06:18:18;;;;;;;15.77;8.18;;;;;;;-2.45;88.69;99934.31;5034014;28;20144;-79
2020/12/26 06:20:46;;;;;;;23.53;9.50;;;;;;;-2.49;88.65;99946.91;5033575;28;20050;-79
2020/12/26 06:23:17;;;;;;;17.67;8.70;;;;;;;-2.55;89.59;99951.72;5034288;28;20053;-79
2020/12/26 06:25:44;;;;;;;19.13;9.47;;;;;;;-2.60;89.13;99946.66;5033358;28;20517;-79
2020/12/26 06:28:28;;;;;;;18.07;9.20;;;;;;;-2.65;89.05;99945.16;5022034;28;20081;-79
2020/12/26 06:30:56;;;;;;;18.67;9.53;;;;;;;-2.63;89.42;99969.91;5013630;28;20069;-79
2020/12/26 06:33:39;;;;;;;18.10;9.63;;;;;;;-2.82;89.81;99930.09;5033046;28;20046;-79
2020/12/26 06:36:07;;;;;;;20.37;8.87;;;;;;;-2.76;89.78;99943.94;5033667;28;20049;-79
2020/12/26 06:38:34;;;;;;;21.13;9.50;;;;;;;-2.65;89.11;99951.34;5034201;28;20075;-79
2020/12/26 06:41:02;;;;;;;20.07;9.60;;;;;;;-2.45;88.74;99986.69;5034265;28;20046;-79
2020/12/26 06:43:51;;;;;;;24.23;10.13;;;;;;;-2.53;88.96;99995.09;5033076;28;20041;-79
2020/12/26 06:46:40;;;;;;;23.00;11.45;;;;;;;-2.55;89.99;99989.84;5033616;28;20060;-79
2020/12/26 06:49:23;;;;;;;26.67;10.40;;;;;;;-2.51;90.30;99991.41;5032929;28;20509;-80
2020/12/26 06:51:50;;;;;;;19.97;11.30;;;;;;;-2.49;90.81;99978.88;5014415;28;20081;-80
2020/12/26 06:54:37;;;;;;;28.20;11.37;;;;;;;-2.56;91.01;99960.63;5025964;28;20061;-80
2020/12/26 06:57:03;;;;;;;22.77;10.43;;;;;;;-2.46;90.76;99963.69;5033748;28;20056;-80
2020/12/26 06:59:32;;;;;;;23.87;11.10;;;;;;;-2.43;89.92;99951.06;5033177;28;20120;-79
2020/12/26 07:02:04;;;;;;;29.67;10.63;;;;;;;-2.29;90.16;99982.25;5033382;28;20084;-78
2020/12/26 07:04:37;;;;;;;22.27;10.30;;;;;;;-2.27;89.88;99987.50;5033217;28;20046;-80
2020/12/26 07:07:04;;;;;;;19.10;9.83;;;;;;;-2.49;90.02;99956.72;5033367;28;20061;-80
2020/12/26 07:09:47;;;;;;;26.00;11.27;;;;;;;-2.43;90.05;99956.38;5033550;28;20501;-80
2020/12/26 07:12:14;;;;;;;23.93;12.17;;;;;;;-2.34;90.21;99966.53;5023705;28;20706;-80
2020/12/26 07:14:42;;;;;;;22.83;11.30;;;;;;;-2.35;90.18;99979.94;5015976;28;20475;-80
2020/12/26 07:17:24;;;;;;;25.83;11.27;;;;;;;-2.24;90.32;99974.91;5032779;28;20041;-80
2020/12/26 07:19:52;;;;;;;23.87;11.77;;;;;;;-2.27;90.70;99976.84;5030253;28;20136;-79
2020/12/26 07:22:23;;;;;;;21.57;11.23;;;;;;;-2.26;90.87;99983.91;5032076;28;20155;-80
2020/12/26 07:24:50;;;;;;;30.67;11.83;;;;;;;-2.33;90.65;99967.41;5033045;28;20049;-80
2020/12/26 07:27:29;;;;;;;25.10;9.83;;;;;;;-2.13;90.78;99977.81;5017371;28;20049;-79
2020/12/26 07:29:58;;;;;;;27.17;10.53;;;;;;;-1.97;90.58;99983.19;5032946;28;20041;-79
2020/12/26 07:32:48;;;;;;;23.52;10.73;;;;;;;-1.97;90.81;99977.00;5032471;28;20076;-80
2020/12/26 07:35:33;;;;;;;23.00;11.52;;;;;;;-2.08;90.39;99961.56;5013188;28;20505;-80
2020/12/26 07:38:03;;;;;;;23.03;10.43;;;;;;;-1.93;90.73;99973.19;5023430;28;20045;-80
2020/12/26 07:40:33;;;;;;;21.27;10.77;;;;;;;-1.75;90.54;100013.09;5031932;28;20661;-80
2020/12/26 07:43:10;;;;;;;26.43;10.93;;;;;;;-1.85;90.02;99980.75;5028069;28;20042;-80
2020/12/26 07:45:38;;;;;;;23.87;10.50;;;;;;;-1.60;90.72;99993.56;5018996;28;20049;-78
2020/12/26 07:48:05;;;;;;;22.40;10.67;;;;;;;-1.73;90.87;99950.75;5030418;28;20111;-80
2020/12/26 07:50:38;;;;;;;24.23;10.33;;;;;;;-1.52;90.81;99963.78;5034204;28;20049;-80
2020/12/26 07:53:06;;;;;;;24.50;11.43;;;;;;;-1.53;90.33;99954.94;5034380;28;20053;-80
2020/12/26 07:55:33;;;;;;;27.03;11.87;;;;;;;-1.52;90.57;99946.00;5028855;28;20042;-80
2020/12/26 07:58:04;;;;;;;31.00;12.17;;;;;;;-1.35;90.17;99955.69;5030986;28;20057;-80
2020/12/26 08:00:32;;;;;;;28.20;11.83;;;;;;;-1.47;90.75;99938.59;5034043;28;20099;-80
2020/12/26 08:03:00;;;;;;;25.23;12.43;;;;;;;-1.40;90.54;99946.22;5034778;28;20494;-80
2020/12/26 08:05:28;;;;;;;27.43;12.80;;;;;;;-1.23;90.77;99966.56;5031549;28;20048;-80
2020/12/26 08:07:55;;;;;;;31.37;12.43;;;;;;;-1.24;90.37;99955.06;5028847;28;20046;-80
2020/12/26 08:10:22;;;;;;;29.60;13.07;;;;;;;-1.25;90.88;99946.19;5029635;28;20037;-80
2020/12/26 08:12:50;;;;;;;26.57;11.93;;;;;;;-1.29;91.68;99935.81;5027560;28;20049;-80
2020/12/26 08:15:21;;;;;;;31.20;12.00;;;;;;;-1.09;91.00;99945.28;5032992;28;20434;-80
2020/12/26 08:17:51;;;;;;;30.63;12.50;;;;;;;-1.06;91.24;99947.75;5030623;28;20053;-80
2020/12/26 08:20:20;;;;;;;31.55;12.25;;;;;;;-0.94;90.47;99946.19;5015439;28;20581;-80
2020/12/26 08:22:46;;;;;;;26.80;12.77;;;;;;;-0.96;90.36;99935.59;5027191;28;20448;-80
2020/12/26 08:25:13;;;;;;;33.10;12.83;;;;;;;-0.81;90.10;99940.94;5032612;28;20057;-80
2020/12/26 08:27:50;;;;;;;28.00;12.73;;;;;;;-0.80;89.79;99935.53;5043473;28;20400;-80
2020/12/26 08:30:19;;;;;;;34.27;12.87;;;;;;;-0.69;89.52;99948.22;5033015;28;20049;-80
2020/12/26 08:33:18;;;;;;;31.57;13.40;;;;;;;-0.74;89.55;99952.97;5032327;28;20107;-81
2020/12/26 08:35:49;;;;;;;30.27;12.37;;;;;;;-0.62;89.69;99962.03;5032416;28;20042;-80
2020/12/26 08:38:23;;;;;;;29.07;12.27;;;;;;;-0.65;89.73;99971.09;5034889;28;20049;-80
2020/12/26 08:40:59;;;;;;;33.37;11.50;;;;;;;-0.85;89.84;99948.28;5016244;28;20161;-80
2020/12/26 08:43:27;;;;;;;30.93;12.77;;;;;;;-0.77;89.74;99945.16;5024192;28;20057;-80
2020/12/26 08:45:53;;;;;;;26.27;11.43;;;;;;;-0.66;89.44;99976.53;5032188;28;20084;-80
2020/12/26 08:48:22;;;;;;;24.27;10.97;;;;;;;-0.61;89.18;99985.13;5032452;28;20052;-79
2020/12/26 08:50:56;;;;;;;49.28;25.35;;;;;;;-0.48;90.10;99987.91;5032878;28;20049;-79
2020/12/26 08:53:23;;;;;;;38.40;16.43;;;;;;;-0.50;89.47;99971.13;5032609;28;20060;-79
2020/12/26 08:55:51;;;;;;;29.37;12.67;;;;;;;-0.34;88.99;99984.41;5032503;28;20079;-80
2020/12/26 08:58:29;;;;;;;24.00;10.73;;;;;;;-0.32;89.23;99977.13;5034966;28;20053;-80
2020/12/26 09:00:58;;;;;;;27.90;12.13;;;;;;;-0.26;88.63;99974.94;5028428;28;20073;-80
2020/12/26 09:03:25;;;;;;;26.43;11.60;;;;;;;-0.17;88.82;99994.88;5030053;28;20052;-80
2020/12/26 09:05:52;;;;;;;29.93;14.07;;;;;;;-0.19;89.25;99991.47;5034804;28;20053;-80
2020/12/26 09:08:19;;;;;;;27.67;12.50;;;;;;;-0.23;88.59;99992.59;5025859;28;20041;-80
2020/12/26 09:10:56;;;;;;;29.30;12.20;;;;;;;-0.19;88.32;100003.00;5035348;28;20076;-80
2020/12/26 09:13:30;;;;;;;21.67;10.07;;;;;;;-0.19;88.49;100005.66;5018144;28;20061;-81
2020/12/26 09:16:01;;;;;;;24.30;10.73;;;;;;;-0.18;89.15;100011.91;5032186;28;20052;-80
2020/12/26 09:18:37;;;;;;;31.83;12.17;;;;;;;-0.12;88.40;100018.66;5030331;28;20489;-79
2020/12/26 09:21:03;;;;;;;26.17;11.57;;;;;;;-0.08;88.59;100018.34;5034318;28;20041;-80
2020/12/26 09:23:34;;;;;;;31.03;12.83;;;;;;;-0.06;88.61;100010.25;5035270;28;20053;-80
2020/12/26 09:26:14;;;;;;;31.07;12.73;;;;;;;-0.01;87.72;100011.69;5034514;28;20100;-80
2020/12/26 09:28:50;;;;;;;22.17;11.30;;;;;;;-0.12;87.95;100007.94;5034322;28;20459;-80
2020/12/26 09:31:18;;;;;;;32.90;12.00;;;;;;;-0.06;88.26;100005.78;5034368;28;20046;-80
2020/12/26 09:33:46;;;;;;;24.20;11.47;;;;;;;-0.01;88.47;100019.69;5033260;28;20046;-80
2020/12/26 09:36:15;;;;;;;25.07;10.87;;;;;;;0.03;87.47;99999.00;5034345;28;20050;-80
2020/12/26 09:38:41;;;;;;;26.87;11.07;;;;;;;0.01;88.32;100008.91;5034577;28;20119;-80
2020/12/26 09:41:12;;;;;;;23.10;11.30;;;;;;;0.10;88.20;100023.50;5034707;28;20049;-80
2020/12/26 09:43:39;;;;;;;22.87;10.07;;;;;;;0.14;88.11;100027.72;5034992;28;20041;-80
2020/12/26 09:46:06;;;;;;;28.97;11.40;;;;;;;0.10;88.03;100018.16;5034042;28;20050;-80
2020/12/26 09:48:32;;;;;;;29.47;12.60;;;;;;;0.22;88.33;100033.44;5034684;28;20045;-80
2020/12/26 09:50:59;;;;;;;23.43;10.70;;;;;;;0.17;87.58;100006.13;5029400;28;20046;-80
2020/12/26 09:53:25;;;;;;;22.17;11.07;;;;;;;0.30;87.55;100025.78;5015007;28;20129;-80
2020/12/26 09:55:52;;;;;;;23.50;11.47;;;;;;;0.27;87.60;100030.44;5033096;28;20048;-80
2020/12/26 09:58:18;;;;;;;20.67;10.53;;;;;;;0.34;87.29;100024.63;5033802;28;20053;-78
2020/12/26 10:00:44;;;;;;;24.43;10.10;;;;;;;0.42;88.27;100023.25;5028399;28;20060;-78
2020/12/26 10:03:11;;;;;;;24.23;10.47;;;;;;;0.35;87.34;100017.47;5019599;28;20539;-77
2020/12/26 10:05:37;;;;;;;29.90;13.33;;;;;;;0.35;87.36;99999.59;5028761;28;20379;-78
2020/12/26 10:08:04;;;;;;;23.97;11.23;;;;;;;0.46;86.77;99996.22;5026843;28;20560;-78
2020/12/26 10:10:30;;;;;;;24.70;10.73;;;;;;;0.67;87.00;100011.84;5034368;28;20052;-78
2020/12/26 10:12:56;;;;;;;18.40;9.80;;;;;;;0.63;87.16;100011.19;5033176;28;20046;-78
2020/12/26 10:15:22;;;;;;;25.70;11.53;;;;;;;0.66;85.88;100018.13;5033529;28;20049;-80
2020/12/26 10:17:50;;;;;;;22.47;9.83;;;;;;;0.67;85.87;100014.50;5034585;28;20072;-81
2020/12/26 10:20:17;;;;;;;17.97;9.20;;;;;;;0.78;86.67;100013.78;5033776;28;20116;-81
2020/12/26 10:22:43;;;;;;;22.53;9.63;;;;;;;0.81;85.70;100013.59;5033845;28;20485;-80
2020/12/26 10:25:09;;;;;;;18.93;9.90;;;;;;;0.75;85.77;99997.94;5033928;28;20049;-80
2020/12/26 10:27:36;;;;;;;22.75;9.85;;;;;;;0.75;86.20;99996.09;5033929;28;20057;-80
2020/12/26 10:30:24;;;;;;;19.20;10.40;;;;;;;0.95;85.21;100009.97;5033812;28;20552;-80
2020/12/26 10:32:50;;;;;;;21.13;11.40;;;;;;;0.98;85.84;100004.41;5033251;28;20433;-80
2020/12/26 10:35:18;;;;;;;24.00;10.18;;;;;;;0.98;85.36;100010.66;5033344;28;20049;-80
2020/12/26 10:37:44;;;;;;;18.92;10.35;;;;;;;1.14;84.99;99996.22;5033147;28;20099;-80
2020/12/26 10:40:10;;;;;;;22.25;10.30;;;;;;;1.15;85.08;99997.94;5033394;28;20076;-80
2020/12/26 10:42:37;;;;;;;22.63;8.88;;;;;;;1.16;84.83;99984.44;5032088;28;20048;-79
2020/12/26 10:45:03;;;;;;;22.70;10.17;;;;;;;1.26;84.07;99979.31;5025447;28;20046;-80
2020/12/26 10:47:38;;;;;;;25.52;11.48;;;;;;;1.29;83.28;99976.41;5032464;28;20041;-80
2020/12/26 10:50:05;;;;;;;20.77;10.15;;;;;;;1.27;83.73;99982.88;5033361;28;20193;-80
2020/12/26 10:52:32;;;;;;;25.10;10.88;;;;;;;1.30;83.60;99970.09;5028527;28;20129;-80
2020/12/26 10:54:59;;;;;;;19.73;8.93;;;;;;;1.18;83.42;99970.97;5031395;28;20554;-79
2020/12/26 10:57:25;;;;;;;17.23;9.60;;;;;;;1.21;84.21;99962.72;5031960;28;20046;-80
2020/12/26 10:59:51;;;;;;;17.40;9.68;;;;;;;1.40;83.93;99981.91;5031592;28;20053;-80
2020/12/26 11:02:18;;;;;;;18.15;9.32;;;;;;;1.40;83.25;99973.00;5031367;28;20107;-80
2020/12/26 11:04:44;;;;;;;19.92;8.52;;;;;;;1.44;82.95;99949.53;5031426;28;20045;-80
2020/12/26 11:07:10;;;;;;;18.70;8.63;;;;;;;1.40;82.34;99947.06;5031683;28;20052;-81
2020/12/26 11:09:38;;;;;;;18.08;9.18;;;;;;;1.45;82.21;99941.41;5031197;28;20096;-81
2020/12/26 11:12:04;;;;;;;19.65;8.68;;;;;;;1.42;81.87;99939.78;5030249;28;20072;-81
2020/12/26 11:14:31;;;;;;;15.90;7.45;;;;;;;1.41;81.50;99939.88;5031589;28;20049;-81
2020/12/26 11:16:58;;;;;;;16.63;7.70;;;;;;;1.53;81.33;99947.06;5031428;28;20050;-81
2020/12/26 11:19:24;;;;;;;15.95;8.10;;;;;;;1.49;81.97;99931.31;5031210;28;20129;-81
2020/12/26 11:21:52;;;;;;;18.60;8.20;;;;;;;1.44;81.73;99918.22;5031236;28;20042;-81
2020/12/26 11:24:18;;;;;;;20.45;8.77;;;;;;;1.61;81.59;99938.47;5030298;28;20046;-81
2020/12/26 11:26:46;;;;;;;19.42;8.50;;;;;;;1.59;81.64;99913.59;5031230;28;20053;-80
2020/12/26 11:29:12;;;;;;;19.50;7.85;;;;;;;1.65;81.96;99929.25;5031221;28;20620;-79
2020/12/26 11:31:39;;;;;;;15.35;8.52;;;;;;;1.65;80.72;99928.41;5031308;28;20095;-79